Flight Track Log - Related Links

Times and Time Zones

All times are in EDT time to prevent confusion due to time zone crossing. See the SKW5162 flight status page for this flight to view local times or setup timezone preferences in your user account.

Time Position Orientation Groundspeed Altitude Reporting Facility
EDT Latitude Longitude Course Direction KTS MPH feet Rate Location/Type
Thu 04:07:56 PM 28.5500 -81.3333 352° North 259 298 3,400  Level Orlando TRACON
Thu 04:08:50 PM 28.5500 -81.4000 270° West 259 298 5,900 2,727 Climbing Orlando TRACON
Thu 04:09:00 PM 28.4167 -81.8041 270° West  Level FlightAware Approximate
Thu 04:10:00 PM 28.4167 -81.9301 270° West  Level FlightAware Approximate
Thu 04:10:08 PM 28.5333 -81.5167 261° West 270 311 9,400  Level Orlando TRACON
Thu 04:11:00 PM 28.4167 -82.0562 270° West  Level FlightAware Approximate
Thu 04:11:14 PM 28.5167 -81.6167 259° West 287 330 11,600  Level Orlando TRACON
Thu 04:12:57 PM 28.5000 -81.7872 264° West 349 402 14,100 1,399 Climbing Jacksonville Center
Thu 04:13:57 PM 28.4800 -81.9031 259° West 365 420 15,400 1,450 Climbing Jacksonville Center
Thu 04:14:57 PM 28.4661 -82.0211 262° West 379 436 17,000 1,850 Climbing Jacksonville Center
Thu 04:15:57 PM 28.4525 -82.1536 263° West 385 443 19,100 2,000 Climbing Jacksonville Center
Thu 04:16:57 PM 28.4739 -82.2714 282° West 376 433 21,000 1,650 Climbing Jacksonville Center
Thu 04:17:57 PM 28.5142 -82.3822 292° West 376 433 22,400 1,150 Climbing Jacksonville Center
Thu 04:18:57 PM 28.5542 -82.5003 291° West 388 447 23,300 900 Climbing Jacksonville Center
Thu 04:19:57 PM 28.5961 -82.6206 292° West 396 456 24,200 900 Climbing Jacksonville Center
Thu 04:20:57 PM 28.6381 -82.7483 291° West 414 476 25,100 800 Climbing Jacksonville Center
Thu 04:21:57 PM 28.6800 -82.8428 297° West 424 488 25,800 900 Climbing Jacksonville Center
Thu 04:22:57 PM 28.7886 -82.9375 323° Northwest 418 481 26,900 1,100 Climbing Jacksonville Center
Thu 04:23:57 PM 28.8886 -83.0158 326° Northwest 430 495 28,000 1,100 Climbing Jacksonville Center
Thu 04:24:57 PM 28.9908 -83.0944 326° Northwest 442 509 29,100 1,050 Climbing Jacksonville Center
Thu 04:25:57 PM 29.0931 -83.1778 325° Northwest 442 509 30,100 950 Climbing Jacksonville Center
Thu 04:26:57 PM 29.1889 -83.2564 324° Northwest 442 509 31,000 900 Climbing Jacksonville Center
Thu 04:27:57 PM 29.2928 -83.3378 326° Northwest 442 509 31,900 900 Climbing Jacksonville Center
Thu 04:28:57 PM 29.3822 -83.4311 295° West 442 509 32,800 900 Climbing Jacksonville Center
Thu 04:29:00 PM 29.3754 -83.4218 295° West  Level FlightAware Approximate
Thu 04:29:57 PM 29.4381 -83.5508 298° West 429 494 33,700  Level Jacksonville Center
Thu 04:30:57 PM 29.4981 -83.6728 300° West 429 494 34,400 650 Climbing Jacksonville Center
Thu 04:31:57 PM 29.5536 -83.7950 298° West 434 499 35,000 600 Climbing Jacksonville Center
Thu 04:32:57 PM 29.6089 -83.9172 298° West 434 499 35,600 600 Climbing Jacksonville Center
Thu 04:33:57 PM 29.6642 -84.0422 297° West 429 494 36,200 600 Climbing Jacksonville Center
Thu 04:34:57 PM 29.7194 -84.1625 298° West 429 494 36,800 700 Climbing Jacksonville Center
Thu 04:35:57 PM 29.7786 -84.2972 297° West 429 494 37,600 600 Climbing Jacksonville Center
Thu 04:36:57 PM 29.8358 -84.4153 299° West 424 488 38,000 200 Climbing Jacksonville Center
Thu 04:37:57 PM 29.8906 -84.5336 298° West 424 488 38,000  Level Jacksonville Center
Thu 04:39:00 PM 29.9427 -84.6505 297° West  Level FlightAware Approximate
Thu 04:39:57 PM 29.9978 -84.7753 297° West 429 494 38,000  Level Jacksonville Center
Thu 04:40:58 PM 30.0506 -84.8914 298° West 419 482 38,000  Level Jacksonville Center
Thu 04:41:57 PM 30.1008 -85.0031 298° West 409 471 38,000  Level Jacksonville Center
Thu 04:42:57 PM 30.1511 -85.1194 297° West 404 465 38,000  Level Jacksonville Center
Thu 04:43:57 PM 30.2011 -85.2333 297° West 404 465 38,000  Level Jacksonville Center
Thu 04:44:57 PM 30.2533 -85.3478 298° West 404 465 38,000  Level Jacksonville Center
Thu 04:45:57 PM 30.3033 -85.4644 296° West 404 465 38,000  Level Jacksonville Center
Thu 04:46:57 PM 30.3550 -85.5814 297° West 409 471 38,000  Level Jacksonville Center
Thu 04:47:57 PM 30.3961 -85.7053 291° West 409 471 38,000  Level Jacksonville Center
Thu 04:48:57 PM 30.3994 -85.8356 272° West 399 459 38,000  Level Jacksonville Center
Thu 04:49:57 PM 30.4047 -85.9706 273° West 414 476 38,000  Level Jacksonville Center
Thu 04:50:57 PM 30.4036 -86.1006 269° West 414 476 38,000  Level Jacksonville Center
Thu 04:51:57 PM 30.4086 -86.2356 272° West 414 476 38,000  Level Jacksonville Center
Thu 04:52:57 PM 30.4069 -86.3681 269° West 414 476 38,000  Level Jacksonville Center
Thu 04:53:57 PM 30.4117 -86.5031 272° West 420 483 38,000  Level Jacksonville Center
Thu 04:54:57 PM 30.4119 -86.6378 270° West 420 483 38,000  Level Jacksonville Center
Thu 04:55:57 PM 30.4144 -86.7631 271° West 420 483 38,000  Level Jacksonville Center
Thu 04:56:57 PM 30.4144 -86.9006 270° West 420 483 38,000  Level Jacksonville Center
Thu 04:57:57 PM 30.4164 -87.0306 271° West 420 483 38,000  Level Jacksonville Center
Thu 04:58:57 PM 30.4161 -87.1678 270° West 420 483 38,000  Level Jacksonville Center
Thu 04:59:57 PM 30.4178 -87.3028 271° West 420 483 38,000  Level Jacksonville Center
Thu 05:00:57 PM 30.4172 -87.4375 270° West 420 483 38,000  Level Jacksonville Center
Thu 05:02:15 PM 30.4197 -87.6258 271° West 424 488 38,000  Level Houston Center
Thu 05:03:17 PM 30.4200 -87.7625 270° West 423 487 38,000  Level Houston Center
Thu 05:04:19 PM 30.4208 -87.8994 270° West 425 489 38,000  Level Houston Center
Thu 05:05:21 PM 30.4208 -88.0361 270° West 424 488 38,000  Level Houston Center
Thu 05:06:23 PM 30.4211 -88.1722 270° West 422 486 38,000  Level Houston Center
Thu 05:07:25 PM 30.4194 -88.3094 269° West 423 487 38,000  Level Houston Center
Thu 05:08:27 PM 30.4197 -88.4736 270° West 424 488 38,000  Level Houston Center
Thu 05:09:30 PM 30.4189 -88.6100 270° West 424 488 38,000  Level Houston Center
Thu 05:10:32 PM 30.4189 -88.7472 270° West 425 489 38,000  Level Houston Center
Thu 05:11:34 PM 30.4172 -88.8825 269° West 423 487 38,000  Level Houston Center
Thu 05:12:36 PM 30.4189 -89.0314 271° West 424 488 38,000  Level Houston Center
Thu 05:13:38 PM 30.4175 -89.1653 269° West 419 482 38,000  Level Houston Center
Thu 05:14:40 PM 30.4011 -89.2978 262° West 423 487 38,000  Level Houston Center
Thu 05:15:42 PM 30.3608 -89.4250 250° West 421 484 38,000  Level Houston Center
Thu 05:16:44 PM 30.3311 -89.5569 255° West 422 486 38,000  Level Houston Center
Thu 05:17:46 PM 30.2928 -89.7039 253° West 433 498 38,000  Level Houston Center
Thu 05:18:48 PM 30.2644 -89.8358 256° West 426 490 38,000  Level Houston Center
Thu 05:19:51 PM 30.2433 -89.9928 261° West 423 487 38,000  Level Houston Center
Thu 05:20:53 PM 30.2297 -90.1275 263° West 419 482 38,000  Level Houston Center
Thu 05:21:55 PM 30.2144 -90.2617 263° West 420 483 38,000  Level Houston Center
Thu 05:22:57 PM 30.2000 -90.3964 263° West 423 487 38,000  Level Houston Center
Thu 05:23:59 PM 30.1833 -90.5319 262° West 426 490 38,000  Level Houston Center
Thu 05:25:01 PM 30.1692 -90.6658 263° West 423 487 38,000  Level Houston Center
Thu 05:26:03 PM 30.1525 -90.8278 263° West 422 486 38,000  Level Houston Center
Thu 05:27:05 PM 30.1219 -90.9606 255° West 425 489 38,000  Level Houston Center
Thu 05:28:07 PM 30.0836 -91.0911 251° West 429 494 38,000  Level Houston Center
Thu 05:29:09 PM 30.0461 -91.2206 252° West 428 493 38,000  Level Houston Center
Thu 05:30:12 PM 30.0086 -91.3508 252° West 428 493 38,000  Level Houston Center
Thu 05:31:14 PM 29.9697 -91.4789 251° West 425 489 38,000  Level Houston Center
Thu 05:32:16 PM 29.9261 -91.6325 252° West 421 484 38,000  Level Houston Center
Thu 05:33:18 PM 29.8886 -91.7564 251° West 420 483 38,000  Level Houston Center
Thu 05:34:21 PM 29.8486 -91.8844 250° West 423 487 38,000  Level Houston Center
Thu 05:35:22 PM 29.8114 -92.0119 251° West 422 486 38,000  Level Houston Center
Thu 05:36:24 PM 29.7728 -92.1378 251° West 419 482 38,000  Level Houston Center
Thu 05:37:26 PM 29.7264 -92.2911 251° West 421 484 38,000  Level Houston Center
Thu 05:38:28 PM 29.6881 -92.4189 251° West 421 484 38,000  Level Houston Center
Thu 05:39:31 PM 29.6489 -92.5458 250° West 422 486 38,000  Level Houston Center
Thu 05:40:33 PM 29.6092 -92.6756 251° West 423 487 38,000  Level Houston Center
Thu 05:41:35 PM 29.5711 -92.8014 251° West 423 487 38,000 -48 Level Houston Center
Thu 05:42:37 PM 29.5300 -92.9297 250° West 425 489 37,900 -1,403 Descending Houston Center
Thu 05:43:39 PM 29.4881 -93.0867 253° West 429 494 35,100 -2,468 Descending Houston Center
Thu 05:44:41 PM 29.4694 -93.2219 261° West 431 496 32,800 -2,226 Descending Houston Center
Thu 05:45:43 PM 29.3817 -93.3144 223° Southwest 437 503 30,500 -2,226 Descending Houston Center
Thu 05:46:45 PM 29.2781 -93.3792 209° Southwest 439 505 28,200 -2,177 Descending Houston Center
Thu 05:47:47 PM 29.2900 -93.5003 276° West 404 465 26,000 -1,968 Descending Houston Center
Thu 05:48:50 PM 29.3250 -93.6203 289° West 395 455 24,100 -1,824 Descending Houston Center
Thu 05:49:52 PM 29.3600 -93.7436 288° West 403 464 22,200 -2,032 Descending Houston Center
Thu 05:50:54 PM 29.4025 -93.8889 289° West 401 461 19,900 -2,081 Descending Houston Center
Thu 05:51:56 PM 29.4364 -94.0053 289° West 389 448 17,900 -1,839 Descending Houston Center
Thu 05:52:58 PM 29.4686 -94.1178 288° West 376 433 16,100 -1,846 Descending Houston Center
Thu 05:53:40 PM 29.4931 -94.2064 288° West 367 422 14,700 -1,935 Descending Houston Center
Thu 05:54:00 PM 29.5033 -94.2406 289° West 367 422 14,100 -1,636 Descending Houston Center
Thu 05:54:35 PM 29.5214 -94.3011 289° West 351 404 13,200 -968 Descending Houston Center
Thu 05:55:02 PM 29.5339 -94.3464 288° West 354 407 13,100 -98 Descending Houston Center
Thu 05:55:36 PM 29.5597 -94.4092 295° West 350 403 13,100 -97 Level Houston Center
Thu 05:56:04 PM 29.5758 -94.4450 297° West 349 402 13,000 -632 Descending Houston Center
Thu 05:56:33 PM 29.6000 -94.5000 297° West 350 403 12,500 -774 Descending Houston Center
Thu 05:57:06 PM 29.6189 -94.5442 296° West 348 400 12,200 -806 Descending Houston Center
Thu 05:57:40 PM 29.6439 -94.6050 295° West 322 371 11,600 -857 Descending Houston Center
Thu 05:58:09 PM 29.6578 -94.6347 298° West 323 372 11,300 -1,082 Descending Houston Center
Thu 05:58:41 PM 29.6847 -94.6986 296° West 314 361 10,500 -1,161 Descending Houston Center
Thu 05:59:11 PM 29.6958 -94.7244 296° West 315 362 10,100 -1,258 Descending Houston Center
Thu 05:59:43 PM 29.7225 -94.7875 296° West 306 352 9,200 -1,452 Descending Houston Center
Thu 06:00:13 PM 29.7397 -94.8275 296° West 304 350 8,600 -1,377 Descending Houston Center
Thu 06:00:44 PM 29.7581 -94.8722 295° West 294 338 7,800 -1,258 Descending Houston Center
Thu 06:01:15 PM 29.7756 -94.9103 298° West 293 337 7,300 -1,286 Descending Houston Center
Thu 06:01:40 PM 29.7903 -94.9478 294° West 284 327 6,600 -1,258 Descending Houston Center
Thu 06:02:17 PM 29.8108 -94.9908 299° West 287 330 6,000 -537 Descending Houston Center
Thu 06:02:47 PM 29.8308 -95.0414 295° West 283 326 6,000  Level Houston Center
Thu 06:03:19 PM 29.8447 -95.0731 297° West 286 329 6,000  Level Houston Center
Thu 06:03:49 PM 29.8661 -95.1261 295° West 298 343 6,000  Level Houston Center
Thu 06:04:21 PM 29.8867 -95.1739 296° West 294 338 6,000  Level Houston Center
Thu 06:04:44 PM 29.8964 -95.2044 290° West 294 338 6,000 97 Level Houston Center
Thu 06:05:23 PM 29.8994 -95.2622 274° West 287 330 6,100  Climbing Houston Center
Thu 06:05:51 PM 29.8997 -95.3078 270° West 273 314 6,000  Descending Houston Center
Thu 06:06:25 PM 29.9003 -95.3458 271° West 264 304 6,100  Climbing Houston Center
Thu 06:06:58 PM 29.8992 -95.3944 269° West 236 272 6,000 -95 Descending Houston Center
Thu 06:07:28 PM 29.9017 -95.4208 276° West 240 276 6,000  Level Houston Center
Thu 06:07:54 PM 29.8994 -95.4667 267° West 244 281 6,000 -97 Level Houston Center
Thu 06:08:30 PM 29.9017 -95.4975 275° West 240 276 5,900 -590 Descending Houston Center
Thu 06:08:55 PM 29.9000 -95.5439 268° West 238 274 5,400 -1,452 Descending Houston Center
Thu 06:09:32 PM 29.9019 -95.5883 273° West 239 275 4,400 -1,418 Descending Houston Center
Thu 06:09:50 PM 29.9000 -95.6136 265° West 240 276 4,100 -387 Descending Houston Center
Thu 06:10:34 PM 29.9019 -95.6650 273° West 240 276 4,000 -88 Descending Houston Center
Thu 06:10:58 PM 29.9014 -95.6978 269° West 236 272 4,000  Level Houston Center
Thu 06:11:36 PM 29.9069 -95.7400 279° West 237 273 4,000  Level Houston Center
Thu 06:12:05 PM 29.9308 -95.7692 313° West 234 269 4,000  Level Houston Center
Thu 06:12:38 PM 29.9569 -95.7556 24° Northeast 230 265 4,000  Level Houston Center
Thu 06:12:54 PM 29.9736 -95.7303 53° Northeast 233 268 4,000  Level Houston Center
Thu 06:13:40 PM 29.9919 -95.6936 60° Northeast 232 267 4,000  Level Houston Center
Thu 06:14:01 PM 29.9919 -95.6536 90° East 226 260 4,000  Level Houston Center
Thu 06:14:42 PM 29.9928 -95.6206 88° East 231 266 4,000 -107 Level Houston Center
Thu 06:14:57 PM 29.9928 -95.5931 90° East 213 245 3,900 -774 Descending Houston Center
Thu 06:15:44 PM 29.9925 -95.5436 90° East 207 238 3,200 -894 Descending Houston Center

Login

Don't have an account? Register now (free) for customized features, flight alerts, and more!